createdAt,value
2019-04-29T00:01:51.842Z,102426.48
2019-04-29T00:04:18.938Z,102434.39
2019-04-29T00:06:46.206Z,102422.50
2019-04-29T00:09:15.320Z,102431.25
2019-04-29T00:11:42.514Z,102427.26
2019-04-29T00:14:09.784Z,102422.36
2019-04-29T00:16:43.074Z,102416.63
2019-04-29T00:19:41.693Z,102421.38
2019-04-29T00:22:08.858Z,102416.06
2019-04-29T00:24:35.938Z,102414.27
2019-04-29T00:27:03.406Z,102417.70
2019-04-29T00:29:30.572Z,102415.48
2019-04-29T00:31:57.641Z,102418.11
2019-04-29T00:34:24.719Z,102419.82
2019-04-29T00:37:10.710Z,102421.97
2019-04-29T00:39:54.366Z,102414.52
2019-04-29T00:42:42.342Z,102420.17
2019-04-29T00:45:09.566Z,102414.42
2019-04-29T00:47:36.582Z,102420.53
2019-04-29T00:50:03.799Z,102423.55
2019-04-29T00:52:30.872Z,102423.03
2019-04-29T00:55:04.034Z,102427.80
2019-04-29T00:57:31.098Z,102429.47
2019-04-29T00:59:58.173Z,102426.30
2019-04-29T01:02:25.245Z,102419.19
2019-04-29T01:04:52.612Z,102424.41
2019-04-29T01:07:19.710Z,102432.73
2019-04-29T01:09:46.781Z,102425.72
2019-04-29T01:12:13.852Z,102428.35
2019-04-29T01:14:42.139Z,102434.48
2019-04-29T01:17:09.196Z,102430.94
2019-04-29T01:19:36.291Z,102435.75
2019-04-29T01:22:03.461Z,102428.26
2019-04-29T01:24:30.553Z,102428.21
2019-04-29T01:27:35.479Z,102429.95
2019-04-29T01:30:03.571Z,102438.66
2019-04-29T01:32:30.743Z,102431.94
2019-04-29T01:34:57.824Z,102434.91
2019-04-29T01:37:35.496Z,102434.02
2019-04-29T01:40:37.685Z,102430.47
2019-04-29T01:43:04.761Z,102435.62
2019-04-29T01:45:31.830Z,102436.05
2019-04-29T01:47:58.914Z,102435.17
2019-04-29T01:50:25.972Z,102438.23
2019-04-29T01:52:53.044Z,102439.16
2019-04-29T01:55:20.104Z,102437.86
2019-04-29T01:57:47.161Z,102433.53
2019-04-29T02:00:14.837Z,102440.15
2019-04-29T02:02:41.916Z,102439.67
2019-04-29T02:05:08.993Z,102440.59
2019-04-29T02:07:36.047Z,102444.09
2019-04-29T02:10:14.003Z,102434.45
2019-04-29T02:12:41.091Z,102435.77
2019-04-29T02:15:08.330Z,102443.17
2019-04-29T02:17:35.395Z,102441.41
2019-04-29T02:20:02.602Z,102438.78
2019-04-29T02:22:41.323Z,102431.34
2019-04-29T02:25:22.018Z,102436.16
2019-04-29T02:27:49.090Z,102438.30
2019-04-29T02:30:40.383Z,102439.17
2019-04-29T02:33:07.464Z,102443.55
2019-04-29T02:35:34.532Z,102444.42
2019-04-29T02:38:02.611Z,102441.75
2019-04-29T02:40:36.744Z,102436.44
2019-04-29T02:43:12.296Z,102436.82
2019-04-29T02:45:39.360Z,102446.39
2019-04-29T02:48:06.418Z,102438.94
2019-04-29T02:50:33.476Z,102438.01
2019-04-29T02:53:00.556Z,102441.03
2019-04-29T02:55:35.427Z,102437.53
2019-04-29T02:58:23.573Z,102434.46
2019-04-29T03:01:08.584Z,102431.78
2019-04-29T03:03:52.317Z,102437.91
2019-04-29T03:06:19.382Z,102438.78
2019-04-29T03:08:46.448Z,102430.02
2019-04-29T03:11:13.536Z,102428.61
2019-04-29T03:13:40.595Z,102428.97
2019-04-29T03:16:07.998Z,102424.55
2019-04-29T03:18:37.025Z,102417.10
2019-04-29T03:21:11.056Z,102415.34
2019-04-29T03:23:38.111Z,102416.22
2019-04-29T03:26:05.200Z,102418.02
2019-04-29T03:28:32.285Z,102414.48
2019-04-29T03:30:59.366Z,102410.59
2019-04-29T03:33:26.430Z,102411.47
2019-04-29T03:35:53.524Z,102413.23
2019-04-29T03:38:20.593Z,102416.33
2019-04-29T03:40:47.754Z,102411.52
2019-04-29T03:43:14.816Z,102414.59
2019-04-29T03:45:41.891Z,102418.53
2019-04-29T03:48:08.952Z,102411.58
2019-04-29T03:50:36.010Z,102413.37
2019-04-29T03:53:03.097Z,102408.58
2019-04-29T03:55:40.052Z,102405.08
2019-04-29T03:57:59.116Z,102408.63
2019-04-29T04:00:26.178Z,102404.73
2019-04-29T04:03:11.406Z,102405.63
2019-04-29T04:06:01.056Z,102404.80
2019-04-29T04:08:36.308Z,102401.69
2019-04-29T04:11:03.376Z,102407.42
2019-04-29T04:13:30.445Z,102407.86
2019-04-29T04:15:57.552Z,102406.99
2019-04-29T04:18:28.868Z,102409.19
2019-04-29T04:20:55.926Z,102407.48
2019-04-29T04:23:22.999Z,102404.47
2019-04-29T04:25:50.083Z,102402.29
2019-04-29T04:28:17.200Z,102403.22
2019-04-29T04:30:44.350Z,102406.33
2019-04-29T04:33:11.443Z,102409.01
2019-04-29T04:35:38.633Z,102411.24
2019-04-29T04:38:05.995Z,102410.87
2019-04-29T04:40:41.665Z,102414.03
2019-04-29T04:43:08.692Z,102414.53
2019-04-29T04:45:35.768Z,102414.58
2019-04-29T04:48:02.985Z,102412.00
2019-04-29T04:50:29.999Z,102413.36
2019-04-29T04:52:57.070Z,102407.28
2019-04-29T04:55:27.179Z,102411.30
2019-04-29T04:57:54.243Z,102418.80
2019-04-29T05:00:22.846Z,102414.08
2019-04-29T05:02:49.903Z,102414.13
2019-04-29T05:05:16.967Z,102409.83
2019-04-29T05:07:44.057Z,102408.12
2019-04-29T05:10:11.657Z,102416.10
2019-04-29T05:12:38.758Z,102417.02
2019-04-29T05:15:06.142Z,102411.80
2019-04-29T05:17:33.209Z,102409.25
2019-04-29T05:20:00.274Z,102411.09
2019-04-29T05:22:29.459Z,102412.92
2019-04-29T05:24:56.538Z,102412.56
2019-04-29T05:27:23.665Z,102405.18
2019-04-29T05:29:50.722Z,102403.50
2019-04-29T05:32:17.790Z,102403.56
2019-04-29T05:34:48.246Z,102395.33
2019-04-29T05:37:26.007Z,102394.95
2019-04-29T05:39:53.075Z,102391.98
2019-04-29T05:42:20.127Z,102391.19
2019-04-29T05:44:53.545Z,102388.20
2019-04-29T05:47:34.285Z,102388.75
2019-04-29T05:50:32.942Z,102391.47
2019-04-29T05:53:18.354Z,102391.53
2019-04-29T05:55:45.420Z,102390.33
2019-04-29T05:58:12.483Z,102391.24
2019-04-29T06:00:59.322Z,102392.19
2019-04-29T06:03:26.381Z,102390.48
2019-04-29T06:05:53.443Z,102395.80
2019-04-29T06:08:20.521Z,102395.84
2019-04-29T06:10:48.679Z,102394.99
2019-04-29T06:13:15.749Z,102389.31
2019-04-29T06:15:42.885Z,102390.20
2019-04-29T06:18:09.999Z,102398.16
2019-04-29T06:20:37.062Z,102396.44
2019-04-29T06:23:04.158Z,102399.07
2019-04-29T06:25:31.251Z,102399.55
2019-04-29T06:27:58.338Z,102399.13
2019-04-29T06:30:25.409Z,102393.40
2019-04-29T06:32:52.494Z,102395.61
2019-04-29T06:35:19.570Z,102399.14
2019-04-29T06:37:46.645Z,102392.08
2019-04-29T06:40:13.822Z,102391.63
2019-04-29T06:42:40.899Z,102397.36
2019-04-29T06:45:08.070Z,102388.08
2019-04-29T06:47:35.171Z,102388.98
2019-04-29T06:50:02.528Z,102390.74
2019-04-29T06:52:29.611Z,102388.94
2019-04-29T06:54:56.678Z,102392.84
2019-04-29T06:57:23.752Z,102387.56
2019-04-29T06:59:50.823Z,102383.56
2019-04-29T07:02:17.886Z,102384.44
2019-04-29T07:04:44.958Z,102378.63
2019-04-29T07:07:12.038Z,102379.03
2019-04-29T07:09:39.130Z,102377.21
2019-04-29T07:12:08.174Z,102384.17
2019-04-29T07:14:38.467Z,102381.44
2019-04-29T07:17:05.529Z,102376.94
2019-04-29T07:19:33.185Z,102378.13
2019-04-29T07:22:00.315Z,102378.46
2019-04-29T07:24:27.407Z,102368.64
2019-04-29T07:26:57.899Z,102367.23
2019-04-29T07:29:29.819Z,102366.27
2019-04-29T07:31:52.489Z,102359.59
2019-04-29T07:34:19.557Z,102363.84
2019-04-29T07:36:46.634Z,102364.95
2019-04-29T07:39:13.708Z,102360.27
2019-04-29T07:41:40.766Z,102359.22
2019-04-29T07:44:07.834Z,102360.40
2019-04-29T07:46:56.044Z,102352.65
2019-04-29T07:49:12.852Z,102351.86
2019-04-29T07:51:39.610Z,102348.89
2019-04-29T07:54:11.005Z,102347.22
2019-04-29T07:56:37.845Z,102343.75
2019-04-29T07:59:05.681Z,102343.34
2019-04-29T08:01:32.748Z,102347.83
2019-04-29T08:03:59.816Z,102342.17
2019-04-29T08:06:27.090Z,102346.45
2019-04-29T08:08:57.378Z,102340.12
2019-04-29T08:11:23.328Z,102337.42
2019-04-29T08:13:51.303Z,102336.94
2019-04-29T08:16:18.701Z,102336.37
2019-04-29T08:18:49.635Z,102330.98
2019-04-29T08:21:16.006Z,102333.98
2019-04-29T08:23:43.162Z,102328.65
2019-04-29T08:26:10.242Z,102332.94
2019-04-29T08:28:37.304Z,102332.34
2019-04-29T08:31:05.570Z,102334.93
2019-04-29T08:33:32.644Z,102335.28
2019-04-29T08:35:59.710Z,102328.53
2019-04-29T08:38:26.783Z,102327.12
2019-04-29T08:40:53.859Z,102333.24
2019-04-29T08:43:39.328Z,102325.66
2019-04-29T08:46:09.644Z,102323.06
2019-04-29T08:48:36.704Z,102327.91
2019-04-29T08:51:03.771Z,102327.84
2019-04-29T08:53:30.839Z,102326.39
2019-04-29T08:55:57.917Z,102327.19
2019-04-29T08:58:24.980Z,102316.55
2019-04-29T09:00:55.767Z,102315.94
2019-04-29T09:03:23.355Z,102319.05
2019-04-29T09:06:03.992Z,102319.87
2019-04-29T09:08:19.028Z,102319.05
2019-04-29T09:10:46.182Z,102312.80
2019-04-29T09:13:13.253Z,102312.58
2019-04-29T09:15:40.331Z,102302.91
2019-04-29T09:18:07.406Z,102299.30
2019-04-29T09:20:34.476Z,102305.17
2019-04-29T09:23:07.939Z,102298.02
2019-04-29T09:26:02.701Z,102293.09
2019-04-29T09:28:28.145Z,102284.06
2019-04-29T09:30:54.886Z,102284.89
2019-04-29T09:33:21.950Z,102282.23
2019-04-29T09:35:49.023Z,102287.53
2019-04-29T09:38:16.093Z,102298.34
2019-04-29T09:40:54.423Z,102287.11
2019-04-29T09:43:35.731Z,102295.06
2019-04-29T09:46:09.277Z,102296.48
2019-04-29T09:48:36.347Z,102294.31
2019-04-29T09:51:16.722Z,102284.28
2019-04-29T09:53:32.688Z,102289.88
2019-04-29T09:55:59.746Z,102287.58
2019-04-29T09:58:26.828Z,102285.13
2019-04-29T10:01:13.886Z,102283.10
2019-04-29T10:04:12.711Z,102285.74
2019-04-29T10:06:40.545Z,102279.70
2019-04-29T10:09:09.642Z,102274.39
2019-04-29T10:11:36.801Z,102274.37
2019-04-29T10:14:04.236Z,102278.75
2019-04-29T10:16:56.892Z,102272.86
2019-04-29T10:19:41.533Z,102270.30
2019-04-29T10:22:08.659Z,102258.67
2019-04-29T10:24:35.728Z,102252.60
2019-04-29T10:27:03.083Z,102249.34
2019-04-29T10:29:31.955Z,102251.72
2019-04-29T10:32:02.367Z,102254.54
2019-04-29T10:34:31.551Z,102255.03
2019-04-29T10:36:57.176Z,102250.61
2019-04-29T10:39:43.929Z,102250.61
2019-04-29T10:42:11.708Z,102243.63
2019-04-29T10:45:15.843Z,102240.09
2019-04-29T10:48:02.586Z,102236.20
2019-04-29T10:50:31.850Z,102227.57
2019-04-29T10:53:00.016Z,102216.30
2019-04-29T10:55:29.938Z,102222.34
2019-04-29T10:57:56.203Z,102224.16
2019-04-29T11:01:09.176Z,102222.06
2019-04-29T11:03:36.245Z,102215.27
2019-04-29T11:06:03.312Z,102204.64
2019-04-29T11:08:47.827Z,102194.08
2019-04-29T11:11:22.712Z,102194.21
2019-04-29T11:13:49.913Z,102183.75
2019-04-29T11:16:13.611Z,102180.59
2019-04-29T11:18:40.674Z,102178.26
2019-04-29T11:21:09.024Z,102170.74
2019-04-29T11:24:01.509Z,102166.55
2019-04-29T11:26:44.741Z,102176.07
2019-04-29T11:29:11.952Z,102177.67
2019-04-29T11:31:39.755Z,102181.30
2019-04-29T11:34:26.378Z,102185.72
2019-04-29T11:36:53.528Z,102185.80
2019-04-29T11:39:20.737Z,102189.83
2019-04-29T11:41:50.023Z,102179.41
2019-04-29T11:44:17.080Z,102180.56
2019-04-29T11:46:44.634Z,102166.59
2019-04-29T11:49:14.638Z,102157.16
2019-04-29T11:52:07.650Z,102150.19
2019-04-29T11:54:17.463Z,102147.78
2019-04-29T11:56:41.302Z,102144.09
2019-04-29T11:59:27.019Z,102141.64
2019-04-29T12:02:44.534Z,102150.56
2019-04-29T12:05:20.671Z,102154.98
2019-04-29T12:07:47.947Z,102170.14
2019-04-29T12:10:15.081Z,102169.31
2019-04-29T12:12:43.738Z,102163.17
2019-04-29T12:15:21.405Z,102153.38
2019-04-29T12:18:06.774Z,102150.95
2019-04-29T12:20:45.452Z,102141.52
2019-04-29T12:23:15.668Z,102132.17
2019-04-29T12:25:41.512Z,102122.41
2019-04-29T12:28:18.856Z,102110.84
2019-04-29T12:30:41.447Z,102114.61
2019-04-29T12:33:28.103Z,102121.59
2019-04-29T12:36:05.192Z,102129.45
2019-04-29T12:38:51.363Z,102127.25
2019-04-29T12:41:48.223Z,102121.62
2019-04-29T12:44:16.691Z,102122.08
2019-04-29T12:46:52.343Z,102126.73
2019-04-29T12:49:19.661Z,102117.02
2019-04-29T12:51:46.925Z,102107.99
2019-04-29T12:54:13.993Z,102110.06
2019-04-29T12:56:43.181Z,102114.27
2019-04-29T12:59:10.515Z,102112.83
2019-04-29T13:02:03.707Z,102099.70
2019-04-29T13:04:50.168Z,102096.66
2019-04-29T13:07:36.792Z,102098.42
2019-04-29T13:10:14.541Z,102095.23
2019-04-29T13:12:44.526Z,102094.16
2019-04-29T13:15:23.532Z,102087.66
2019-04-29T13:18:03.571Z,102082.67
2019-04-29T13:20:28.685Z,102074.56
2019-04-29T13:23:01.061Z,102082.77
2019-04-29T13:25:26.827Z,102078.05
2019-04-29T13:28:03.729Z,102075.06
2019-04-29T13:30:25.689Z,102075.56
2019-04-29T13:32:55.943Z,102068.58
2019-04-29T13:35:23.127Z,102067.17
2019-04-29T13:37:50.152Z,102064.32
2019-04-29T13:40:20.056Z,102061.63
2019-04-29T13:42:49.147Z,102061.63
2019-04-29T13:45:26.247Z,102057.05
2019-04-29T13:48:11.589Z,102051.51
2019-04-29T13:50:58.340Z,102046.94
2019-04-29T13:53:25.407Z,102039.63
2019-04-29T13:56:10.400Z,102039.72
2019-04-29T13:58:22.166Z,102037.80
2019-04-29T14:01:21.107Z,102040.40
2019-04-29T14:03:49.726Z,102033.09
2019-04-29T14:06:18.637Z,102027.83
2019-04-29T14:08:45.779Z,102024.15
2019-04-29T14:11:12.975Z,102025.98
2019-04-29T14:13:43.265Z,102020.06
2019-04-29T14:16:12.051Z,102017.75
2019-04-29T14:18:39.371Z,102016.36
2019-04-29T14:21:06.644Z,102018.22
2019-04-29T14:23:33.718Z,102025.67
2019-04-29T14:26:00.782Z,102017.44
2019-04-29T14:28:28.956Z,102012.33
2019-04-29T14:30:56.095Z,102007.84
2019-04-29T14:33:27.901Z,102001.11
2019-04-29T14:36:03.640Z,102001.39
2019-04-29T14:38:30.854Z,101996.69
2019-04-29T14:40:58.127Z,102004.38
2019-04-29T14:43:43.548Z,102008.95
2019-04-29T14:46:32.495Z,102002.06
2019-04-29T14:49:08.601Z,101998.73
2019-04-29T14:51:36.900Z,101989.27
2019-04-29T14:54:05.785Z,101987.33
2019-04-29T14:56:33.654Z,101994.92
2019-04-29T14:59:07.109Z,101994.64
2019-04-29T15:01:38.700Z,101998.41
2019-04-29T15:04:18.253Z,101996.91
2019-04-29T15:06:42.103Z,101999.34
2019-04-29T15:09:16.895Z,101987.22
2019-04-29T15:12:08.797Z,101990.94
2019-04-29T15:14:49.279Z,101987.23
2019-04-29T15:17:51.630Z,101995.30
2019-04-29T15:20:30.116Z,101996.85
2019-04-29T15:22:57.439Z,101989.34
2019-04-29T15:25:24.542Z,102003.80
2019-04-29T15:27:51.619Z,101995.56
2019-04-29T15:30:18.936Z,101988.39
2019-04-29T15:32:46.019Z,101985.64
2019-04-29T15:35:13.177Z,101989.19
2019-04-29T15:37:40.263Z,101992.93
2019-04-29T15:40:07.744Z,101991.17
2019-04-29T15:42:37.774Z,101990.22
2019-04-29T15:45:04.382Z,101997.42
2019-04-29T15:47:31.639Z,101994.70
2019-04-29T15:50:00.825Z,101995.50
2019-04-29T15:52:27.943Z,102003.98
2019-04-29T15:54:55.014Z,101999.95
2019-04-29T15:57:22.275Z,101998.38
2019-04-29T15:59:54.357Z,102004.59
2019-04-29T16:02:18.458Z,102002.02
2019-04-29T16:04:52.403Z,102008.41
2019-04-29T16:07:46.858Z,102005.69
2019-04-29T16:10:39.082Z,102011.89
2019-04-29T16:13:08.358Z,102006.05
2019-04-29T16:15:35.586Z,102006.16
2019-04-29T16:18:05.264Z,102007.65
2019-04-29T16:20:32.901Z,102006.61
2019-04-29T16:23:00.881Z,102010.90
2019-04-29T16:25:29.377Z,102003.43
2019-04-29T16:27:56.584Z,102008.19
2019-04-29T16:30:26.046Z,102009.30
2019-04-29T16:32:52.866Z,102007.11
2019-04-29T16:35:23.980Z,102012.20
2019-04-29T16:37:48.965Z,102003.09
2019-04-29T16:40:16.355Z,102008.42
2019-04-29T16:43:01.987Z,102009.05
2019-04-29T16:45:54.794Z,102009.53
2019-04-29T16:48:22.135Z,102011.75
2019-04-29T16:50:49.202Z,102006.30
2019-04-29T16:53:16.275Z,102011.48
2019-04-29T16:55:45.137Z,102020.05
2019-04-29T16:58:18.062Z,102022.06
2019-04-29T17:00:46.530Z,102018.06
2019-04-29T17:03:10.760Z,102015.16
2019-04-29T17:05:39.248Z,102012.03
2019-04-29T17:08:09.321Z,102015.86
2019-04-29T17:11:04.230Z,102009.03
2019-04-29T17:13:33.101Z,102016.01
2019-04-29T17:16:00.992Z,102016.89
2019-04-29T17:18:29.506Z,102020.26
2019-04-29T17:21:04.523Z,102018.31
2019-04-29T17:23:25.579Z,102020.44
2019-04-29T17:25:52.651Z,102021.52
2019-04-29T17:28:28.995Z,102019.34
2019-04-29T17:31:15.161Z,102024.14
2019-04-29T17:34:01.581Z,102021.56
2019-04-29T17:36:30.909Z,102019.27
2019-04-29T17:38:58.044Z,102017.16
2019-04-29T17:41:25.171Z,102019.59
2019-04-29T17:44:14.547Z,102024.39
2019-04-29T17:46:46.755Z,102027.78
2019-04-29T17:49:36.600Z,102027.69
2019-04-29T17:52:11.247Z,102032.07
2019-04-29T17:54:44.963Z,102038.16
2019-04-29T17:57:30.764Z,102045.50
2019-04-29T18:00:15.714Z,102044.17
2019-04-29T18:03:02.648Z,102050.47
2019-04-29T18:05:53.068Z,102047.59
2019-04-29T18:08:16.793Z,102051.24
2019-04-29T18:10:52.050Z,102054.78
2019-04-29T18:13:24.073Z,102050.66
2019-04-29T18:16:00.969Z,102053.22
2019-04-29T18:18:28.701Z,102055.73
2019-04-29T18:21:25.114Z,102056.89
2019-04-29T18:24:02.012Z,102057.53
2019-04-29T18:26:36.192Z,102046.63
2019-04-29T18:29:06.099Z,102053.48
2019-04-29T18:31:32.951Z,102052.33
2019-04-29T18:34:00.163Z,102060.92
2019-04-29T18:36:27.229Z,102058.34
2019-04-29T18:38:55.644Z,102061.16
2019-04-29T18:41:26.769Z,102057.73
2019-04-29T18:43:57.825Z,102058.73
2019-04-29T18:46:20.875Z,102062.88
2019-04-29T18:48:48.013Z,102063.42
2019-04-29T18:51:15.435Z,102056.89
2019-04-29T18:53:42.602Z,102060.96
2019-04-29T18:56:09.675Z,102060.65
2019-04-29T18:58:36.791Z,102067.58
2019-04-29T19:01:05.360Z,102064.72
2019-04-29T19:03:45.769Z,102071.55
2019-04-29T19:06:15.037Z,102065.92
2019-04-29T19:08:42.413Z,102077.61
2019-04-29T19:11:10.924Z,102068.39
2019-04-29T19:13:38.251Z,102073.37
2019-04-29T19:16:10.190Z,102069.44
2019-04-29T19:18:36.246Z,102074.88
2019-04-29T19:21:03.355Z,102075.95
2019-04-29T19:23:30.634Z,102080.34
2019-04-29T19:25:57.705Z,102088.99
2019-04-29T19:28:30.110Z,102083.15
2019-04-29T19:30:56.056Z,102074.14
2019-04-29T19:33:25.224Z,102076.15
2019-04-29T19:35:52.392Z,102080.80
2019-04-29T19:38:19.532Z,102078.30
2019-04-29T19:40:46.615Z,102074.02
2019-04-29T19:43:17.367Z,102073.64
2019-04-29T19:45:44.749Z,102067.98
2019-04-29T19:48:11.729Z,102078.73
2019-04-29T19:50:38.822Z,102071.70
2019-04-29T19:53:06.339Z,102076.14
2019-04-29T19:55:41.912Z,102079.30
2019-04-29T19:58:03.219Z,102066.94
2019-04-29T20:00:31.761Z,102068.77
2019-04-29T20:02:59.780Z,102072.75
2019-04-29T20:05:52.738Z,102072.80
2019-04-29T20:08:41.248Z,102075.13
2019-04-29T20:10:51.476Z,102081.36
2019-04-29T20:13:18.776Z,102079.70
2019-04-29T20:16:12.590Z,102080.67
2019-04-29T20:19:02.568Z,102072.38
2019-04-29T20:21:33.263Z,102075.58
2019-04-29T20:24:00.819Z,102081.84
2019-04-29T20:26:31.450Z,102079.73
2019-04-29T20:28:59.942Z,102069.16
2019-04-29T20:31:27.267Z,102063.07
2019-04-29T20:33:56.035Z,102061.34
2019-04-29T20:36:38.154Z,102057.89
2019-04-29T20:38:52.590Z,102060.17
2019-04-29T20:41:36.844Z,102064.67
2019-04-29T20:43:56.411Z,102068.73
2019-04-29T20:46:24.386Z,102071.91
2019-04-29T20:48:55.822Z,102067.59
2019-04-29T20:51:25.899Z,102074.70
2019-04-29T20:53:58.403Z,102081.43
2019-04-29T20:56:29.524Z,102075.78
2019-04-29T20:58:55.207Z,102067.89
2019-04-29T21:01:38.211Z,102066.19
2019-04-29T21:04:06.614Z,102066.25
2019-04-29T21:06:39.236Z,102072.06
2019-04-29T21:09:06.261Z,102074.37
2019-04-29T21:11:51.571Z,102077.17
2019-04-29T21:14:34.013Z,102073.30
2019-04-29T21:17:02.157Z,102069.41
2019-04-29T21:19:28.530Z,102070.77
2019-04-29T21:21:55.634Z,102072.12
2019-04-29T21:24:22.894Z,102068.17
2019-04-29T21:26:49.986Z,102070.87
2019-04-29T21:29:19.471Z,102072.26
2019-04-29T21:31:50.592Z,102073.20
2019-04-29T21:34:17.427Z,102071.03
2019-04-29T21:37:01.732Z,102066.63
2019-04-29T21:39:48.699Z,102067.08
2019-04-29T21:42:36.979Z,102078.15
2019-04-29T21:45:08.710Z,102084.80
2019-04-29T21:47:42.680Z,102083.95
2019-04-29T21:50:05.066Z,102081.33
2019-04-29T21:52:32.227Z,102084.45
2019-04-29T21:54:59.298Z,102091.05
2019-04-29T21:57:26.375Z,102085.80
2019-04-29T21:59:53.453Z,102089.34
2019-04-29T22:02:20.727Z,102084.08
2019-04-29T22:04:47.810Z,102080.55
2019-04-29T22:07:15.646Z,102083.64
2019-04-29T22:09:47.296Z,102083.22
2019-04-29T22:12:20.031Z,102074.91
2019-04-29T22:14:45.131Z,102077.60
2019-04-29T22:17:11.743Z,102083.78
2019-04-29T22:19:38.842Z,102086.00
2019-04-29T22:22:05.934Z,102081.14
2019-04-29T22:24:35.958Z,102077.63
2019-04-29T22:27:06.060Z,102080.72
2019-04-29T22:29:37.470Z,102075.43
2019-04-29T22:32:01.821Z,102078.95
2019-04-29T22:34:30.817Z,102082.53
2019-04-29T22:37:01.041Z,102072.89
2019-04-29T22:39:29.975Z,102066.31
2019-04-29T22:42:10.446Z,102060.19
2019-04-29T22:44:37.526Z,102063.27
2019-04-29T22:47:05.663Z,102060.20
2019-04-29T22:49:33.435Z,102060.65
2019-04-29T22:52:00.507Z,102067.23
2019-04-29T22:54:27.572Z,102064.19
2019-04-29T22:56:56.836Z,102065.11
2019-04-29T22:59:25.368Z,102067.75
2019-04-29T23:01:52.839Z,102072.17
2019-04-29T23:04:19.898Z,102069.50
2019-04-29T23:06:48.101Z,102074.34
2019-04-29T23:09:15.333Z,102066.42
2019-04-29T23:11:42.512Z,102056.31
2019-04-29T23:14:10.110Z,102055.42
2019-04-29T23:16:37.723Z,102052.35
2019-04-29T23:19:05.269Z,102043.97
2019-04-29T23:21:50.943Z,102037.39
2019-04-29T23:24:40.695Z,102037.84
2019-04-29T23:27:11.570Z,102035.62
2019-04-29T23:29:43.129Z,102042.22
2019-04-29T23:32:08.366Z,102040.06
2019-04-29T23:34:36.372Z,102047.53
2019-04-29T23:37:03.469Z,102041.37
2019-04-29T23:39:30.538Z,102035.22
2019-04-29T23:41:57.627Z,102032.60
2019-04-29T23:44:24.799Z,102025.12
2019-04-29T23:46:51.862Z,102018.98
2019-04-29T23:49:18.925Z,102011.06
2019-04-29T23:51:46.542Z,102017.65
2019-04-29T23:54:15.280Z,102022.92
2019-04-29T23:57:02.051Z,102019.86
2019-04-29T23:59:30.878Z,102031.31
